Terminal Aerodrome Forecast
Issued by NWS New Orleans/Baton Rouge, LA

Home | Current Version | Previous Version | Text Only | Print | Product List | Glossary On
Versions: 1 2 3 4 5 6 7 8 9 10 11 12 13 14 15 16 17 18
385
FTUS44 KLIX 242334
TAFBTR
TAF
KBTR 242334Z 2500/2524 21006KT P6SM SCT100
     FM250200 23005KT P6SM BKN080
     FM250500 29009KT P6SM BKN060
     FM250800 33010KT P6SM FEW150
     FM251100 35006KT P6SM SKC
     FM251500 36011KT P6SM SKC=

USA.gov is the U.S. government's official web portal to all federal, state and local government web resources and services.